sensor_id;sensor_type;location;lat;lon;timestamp;P1;durP1;ratioP1;P2;durP2;ratioP2
4646;SDS011;2336;47.822;7.564;2024-02-26T00:01:49;1.37;;;1.27;;
4646;SDS011;2336;47.822;7.564;2024-02-26T00:04:17;1.67;;;1.40;;
4646;SDS011;2336;47.822;7.564;2024-02-26T00:06:44;4.13;;;1.47;;
4646;SDS011;2336;47.822;7.564;2024-02-26T00:09:11;1.50;;;1.40;;
4646;SDS011;2336;47.822;7.564;2024-02-26T00:11:37;1.30;;;1.30;;
4646;SDS011;2336;47.822;7.564;2024-02-26T00:14:04;1.80;;;1.73;;
4646;SDS011;2336;47.822;7.564;2024-02-26T00:16:31;2.07;;;1.70;;
4646;SDS011;2336;47.822;7.564;2024-02-26T00:18:58;2.70;;;2.53;;
4646;SDS011;2336;47.822;7.564;2024-02-26T00:21:27;2.00;;;2.00;;
4646;SDS011;2336;47.822;7.564;2024-02-26T00:23:54;1.90;;;1.90;;
4646;SDS011;2336;47.822;7.564;2024-02-26T00:26:21;2.30;;;2.20;;
4646;SDS011;2336;47.822;7.564;2024-02-26T00:28:48;3.80;;;3.10;;
4646;SDS011;2336;47.822;7.564;2024-02-26T00:31:14;2.60;;;2.50;;
4646;SDS011;2336;47.822;7.564;2024-02-26T00:33:41;2.37;;;2.30;;
4646;SDS011;2336;47.822;7.564;2024-02-26T00:36:08;2.50;;;2.30;;
4646;SDS011;2336;47.822;7.564;2024-02-26T00:38:36;1.50;;;1.50;;
4646;SDS011;2336;47.822;7.564;2024-02-26T00:41:04;2.10;;;1.97;;
4646;SDS011;2336;47.822;7.564;2024-02-26T00:43:31;2.80;;;2.60;;
4646;SDS011;2336;47.822;7.564;2024-02-26T00:45:57;2.13;;;2.03;;
4646;SDS011;2336;47.822;7.564;2024-02-26T00:48:25;2.07;;;1.97;;
4646;SDS011;2336;47.822;7.564;2024-02-26T00:50:51;1.67;;;1.57;;
4646;SDS011;2336;47.822;7.564;2024-02-26T00:53:18;2.77;;;2.57;;
4646;SDS011;2336;47.822;7.564;2024-02-26T00:55:46;3.13;;;2.83;;
4646;SDS011;2336;47.822;7.564;2024-02-26T00:58:13;1.77;;;1.67;;
4646;SDS011;2336;47.822;7.564;2024-02-26T01:00:40;2.77;;;1.60;;
4646;SDS011;2336;47.822;7.564;2024-02-26T01:03:06;1.67;;;1.67;;
4646;SDS011;2336;47.822;7.564;2024-02-26T01:05:34;1.57;;;1.47;;
4646;SDS011;2336;47.822;7.564;2024-02-26T01:08:02;2.30;;;1.50;;
4646;SDS011;2336;47.822;7.564;2024-02-26T01:10:29;2.23;;;2.03;;
4646;SDS011;2336;47.822;7.564;2024-02-26T01:12:58;1.60;;;1.60;;
4646;SDS011;2336;47.822;7.564;2024-02-26T01:15:24;1.40;;;1.30;;
4646;SDS011;2336;47.822;7.564;2024-02-26T01:17:51;1.33;;;1.33;;
4646;SDS011;2336;47.822;7.564;2024-02-26T01:20:18;1.20;;;1.20;;
4646;SDS011;2336;47.822;7.564;2024-02-26T01:22:45;1.10;;;1.10;;
4646;SDS011;2336;47.822;7.564;2024-02-26T01:25:12;1.70;;;1.70;;
4646;SDS011;2336;47.822;7.564;2024-02-26T01:27:40;0.90;;;0.90;;
4646;SDS011;2336;47.822;7.564;2024-02-26T01:30:10;1.17;;;1.10;;
4646;SDS011;2336;47.822;7.564;2024-02-26T01:32:37;0.93;;;0.93;;
4646;SDS011;2336;47.822;7.564;2024-02-26T01:35:05;2.20;;;1.30;;
4646;SDS011;2336;47.822;7.564;2024-02-26T01:37:35;4.80;;;1.93;;
4646;SDS011;2336;47.822;7.564;2024-02-26T01:40:01;1.10;;;1.00;;
4646;SDS011;2336;47.822;7.564;2024-02-26T01:42:29;1.33;;;1.23;;
4646;SDS011;2336;47.822;7.564;2024-02-26T01:44:57;1.07;;;1.07;;
4646;SDS011;2336;47.822;7.564;2024-02-26T01:47:25;0.83;;;0.83;;
4646;SDS011;2336;47.822;7.564;2024-02-26T01:49:53;0.60;;;0.60;;
4646;SDS011;2336;47.822;7.564;2024-02-26T01:52:20;0.50;;;0.50;;
4646;SDS011;2336;47.822;7.564;2024-02-26T01:54:47;0.70;;;0.70;;
4646;SDS011;2336;47.822;7.564;2024-02-26T01:57:15;0.80;;;0.80;;
4646;SDS011;2336;47.822;7.564;2024-02-26T01:59:42;0.70;;;0.70;;
4646;SDS011;2336;47.822;7.564;2024-02-26T02:02:09;0.60;;;0.60;;
4646;SDS011;2336;47.822;7.564;2024-02-26T02:04:39;0.50;;;0.50;;
4646;SDS011;2336;47.822;7.564;2024-02-26T02:07:06;0.87;;;0.70;;
4646;SDS011;2336;47.822;7.564;2024-02-26T02:09:33;0.70;;;0.70;;
4646;SDS011;2336;47.822;7.564;2024-02-26T02:11:59;0.60;;;0.60;;
4646;SDS011;2336;47.822;7.564;2024-02-26T02:14:27;0.60;;;0.60;;
4646;SDS011;2336;47.822;7.564;2024-02-26T02:16:53;0.70;;;0.60;;
4646;SDS011;2336;47.822;7.564;2024-02-26T02:19:20;0.60;;;0.60;;
4646;SDS011;2336;47.822;7.564;2024-02-26T02:21:48;1.70;;;0.80;;
4646;SDS011;2336;47.822;7.564;2024-02-26T02:24:15;0.80;;;0.80;;
4646;SDS011;2336;47.822;7.564;2024-02-26T02:26:42;0.90;;;0.90;;
4646;SDS011;2336;47.822;7.564;2024-02-26T02:29:09;0.90;;;0.90;;
4646;SDS011;2336;47.822;7.564;2024-02-26T02:31:35;1.17;;;1.17;;
4646;SDS011;2336;47.822;7.564;2024-02-26T02:34:02;1.30;;;1.30;;
4646;SDS011;2336;47.822;7.564;2024-02-26T02:36:29;1.50;;;1.50;;
4646;SDS011;2336;47.822;7.564;2024-02-26T02:38:57;2.93;;;1.70;;
4646;SDS011;2336;47.822;7.564;2024-02-26T02:41:24;2.10;;;2.00;;
4646;SDS011;2336;47.822;7.564;2024-02-26T02:43:54;1.60;;;1.60;;
4646;SDS011;2336;47.822;7.564;2024-02-26T02:46:21;2.40;;;1.70;;
4646;SDS011;2336;47.822;7.564;2024-02-26T02:48:48;1.73;;;1.73;;
4646;SDS011;2336;47.822;7.564;2024-02-26T02:51:15;1.93;;;1.83;;
4646;SDS011;2336;47.822;7.564;2024-02-26T02:53:41;1.63;;;1.53;;
4646;SDS011;2336;47.822;7.564;2024-02-26T02:56:10;1.90;;;1.90;;
4646;SDS011;2336;47.822;7.564;2024-02-26T02:58:37;2.43;;;2.33;;
4646;SDS011;2336;47.822;7.564;2024-02-26T03:01:04;2.73;;;2.53;;
4646;SDS011;2336;47.822;7.564;2024-02-26T03:03:31;2.27;;;2.17;;
4646;SDS011;2336;47.822;7.564;2024-02-26T03:05:57;1.83;;;1.73;;
4646;SDS011;2336;47.822;7.564;2024-02-26T03:08:24;1.70;;;1.70;;
4646;SDS011;2336;47.822;7.564;2024-02-26T03:10:51;1.80;;;1.70;;
4646;SDS011;2336;47.822;7.564;2024-02-26T03:13:19;2.80;;;2.70;;
4646;SDS011;2336;47.822;7.564;2024-02-26T03:15:46;1.70;;;1.60;;
4646;SDS011;2336;47.822;7.564;2024-02-26T03:18:13;1.87;;;1.67;;
4646;SDS011;2336;47.822;7.564;2024-02-26T03:20:40;1.73;;;1.63;;
4646;SDS011;2336;47.822;7.564;2024-02-26T03:23:06;2.60;;;2.50;;
4646;SDS011;2336;47.822;7.564;2024-02-26T03:25:36;1.90;;;1.70;;
4646;SDS011;2336;47.822;7.564;2024-02-26T03:28:03;2.17;;;2.07;;
4646;SDS011;2336;47.822;7.564;2024-02-26T03:30:32;2.50;;;2.30;;
4646;SDS011;2336;47.822;7.564;2024-02-26T03:32:59;2.10;;;2.00;;
4646;SDS011;2336;47.822;7.564;2024-02-26T03:35:26;1.90;;;1.87;;
4646;SDS011;2336;47.822;7.564;2024-02-26T03:37:53;2.20;;;2.10;;
4646;SDS011;2336;47.822;7.564;2024-02-26T03:40:20;3.30;;;2.30;;
4646;SDS011;2336;47.822;7.564;2024-02-26T03:42:46;1.77;;;1.77;;
4646;SDS011;2336;47.822;7.564;2024-02-26T03:45:13;1.47;;;1.47;;
4646;SDS011;2336;47.822;7.564;2024-02-26T03:47:41;1.37;;;1.27;;
4646;SDS011;2336;47.822;7.564;2024-02-26T03:50:09;1.70;;;1.70;;
4646;SDS011;2336;47.822;7.564;2024-02-26T03:52:36;2.40;;;1.80;;
4646;SDS011;2336;47.822;7.564;2024-02-26T03:55:02;2.40;;;1.47;;
4646;SDS011;2336;47.822;7.564;2024-02-26T03:57:30;1.37;;;1.37;;
4646;SDS011;2336;47.822;7.564;2024-02-26T03:59:56;1.90;;;1.90;;
4646;SDS011;2336;47.822;7.564;2024-02-26T04:02:23;3.43;;;3.03;;
4646;SDS011;2336;47.822;7.564;2024-02-26T04:04:51;2.37;;;2.27;;
4646;SDS011;2336;47.822;7.564;2024-02-26T04:07:18;2.13;;;2.03;;
4646;SDS011;2336;47.822;7.564;2024-02-26T04:09:45;2.20;;;2.07;;
4646;SDS011;2336;47.822;7.564;2024-02-26T04:12:12;1.63;;;1.63;;
4646;SDS011;2336;47.822;7.564;2024-02-26T04:14:39;1.93;;;1.83;;
4646;SDS011;2336;47.822;7.564;2024-02-26T04:17:06;1.97;;;1.87;;
4646;SDS011;2336;47.822;7.564;2024-02-26T04:19:32;2.10;;;2.10;;
4646;SDS011;2336;47.822;7.564;2024-02-26T04:22:01;2.00;;;1.90;;
4646;SDS011;2336;47.822;7.564;2024-02-26T04:24:28;1.90;;;1.83;;
4646;SDS011;2336;47.822;7.564;2024-02-26T04:26:55;2.20;;;2.07;;
4646;SDS011;2336;47.822;7.564;2024-02-26T04:29:21;3.70;;;2.33;;
4646;SDS011;2336;47.822;7.564;2024-02-26T04:31:48;2.07;;;1.97;;
4646;SDS011;2336;47.822;7.564;2024-02-26T04:34:15;2.20;;;2.10;;
4646;SDS011;2336;47.822;7.564;2024-02-26T04:36:42;2.30;;;2.30;;
4646;SDS011;2336;47.822;7.564;2024-02-26T04:39:10;2.00;;;2.00;;
4646;SDS011;2336;47.822;7.564;2024-02-26T04:41:37;1.90;;;1.90;;
4646;SDS011;2336;47.822;7.564;2024-02-26T04:44:04;2.07;;;2.07;;
4646;SDS011;2336;47.822;7.564;2024-02-26T04:46:31;2.90;;;2.80;;
4646;SDS011;2336;47.822;7.564;2024-02-26T04:48:57;3.07;;;2.87;;
4646;SDS011;2336;47.822;7.564;2024-02-26T04:51:24;3.97;;;3.77;;
4646;SDS011;2336;47.822;7.564;2024-02-26T04:53:51;3.37;;;3.17;;
4646;SDS011;2336;47.822;7.564;2024-02-26T04:56:20;3.20;;;3.03;;
4646;SDS011;2336;47.822;7.564;2024-02-26T04:58:47;3.20;;;2.90;;
4646;SDS011;2336;47.822;7.564;2024-02-26T05:01:14;3.40;;;3.30;;
4646;SDS011;2336;47.822;7.564;2024-02-26T05:03:42;2.50;;;2.40;;
4646;SDS011;2336;47.822;7.564;2024-02-26T05:06:08;2.43;;;2.33;;
4646;SDS011;2336;47.822;7.564;2024-02-26T05:08:35;2.03;;;2.03;;
4646;SDS011;2336;47.822;7.564;2024-02-26T05:11:03;1.80;;;1.80;;
4646;SDS011;2336;47.822;7.564;2024-02-26T05:13:32;2.07;;;1.97;;
4646;SDS011;2336;47.822;7.564;2024-02-26T05:15:58;4.40;;;2.30;;
4646;SDS011;2336;47.822;7.564;2024-02-26T05:18:25;2.63;;;2.37;;
4646;SDS011;2336;47.822;7.564;2024-02-26T05:20:52;1.80;;;1.70;;
4646;SDS011;2336;47.822;7.564;2024-02-26T05:23:19;2.53;;;2.43;;
4646;SDS011;2336;47.822;7.564;2024-02-26T05:25:45;2.50;;;2.30;;
4646;SDS011;2336;47.822;7.564;2024-02-26T05:28:13;2.47;;;2.37;;
4646;SDS011;2336;47.822;7.564;2024-02-26T05:30:42;1.90;;;1.80;;
4646;SDS011;2336;47.822;7.564;2024-02-26T05:33:08;4.13;;;3.83;;
4646;SDS011;2336;47.822;7.564;2024-02-26T05:35:35;7.70;;;5.93;;
4646;SDS011;2336;47.822;7.564;2024-02-26T05:38:02;6.67;;;3.50;;
4646;SDS011;2336;47.822;7.564;2024-02-26T05:40:29;17.10;;;10.47;;
4646;SDS011;2336;47.822;7.564;2024-02-26T05:42:56;4.23;;;4.03;;
4646;SDS011;2336;47.822;7.564;2024-02-26T05:45:23;4.37;;;4.13;;
4646;SDS011;2336;47.822;7.564;2024-02-26T05:47:51;4.40;;;4.00;;
4646;SDS011;2336;47.822;7.564;2024-02-26T05:50:18;4.73;;;4.43;;
4646;SDS011;2336;47.822;7.564;2024-02-26T05:52:44;4.80;;;4.07;;
4646;SDS011;2336;47.822;7.564;2024-02-26T05:55:11;3.60;;;3.50;;
4646;SDS011;2336;47.822;7.564;2024-02-26T05:57:38;4.23;;;4.00;;
4646;SDS011;2336;47.822;7.564;2024-02-26T06:00:06;5.23;;;4.77;;
4646;SDS011;2336;47.822;7.564;2024-02-26T06:02:33;4.90;;;4.60;;
4646;SDS011;2336;47.822;7.564;2024-02-26T06:05:01;7.43;;;5.13;;
4646;SDS011;2336;47.822;7.564;2024-02-26T06:07:28;5.37;;;4.27;;
4646;SDS011;2336;47.822;7.564;2024-02-26T06:09:55;9.03;;;6.23;;
4646;SDS011;2336;47.822;7.564;2024-02-26T06:12:22;5.70;;;5.30;;
4646;SDS011;2336;47.822;7.564;2024-02-26T06:14:48;4.40;;;4.20;;
4646;SDS011;2336;47.822;7.564;2024-02-26T06:17:15;4.40;;;4.20;;
4646;SDS011;2336;47.822;7.564;2024-02-26T06:19:42;5.17;;;4.77;;
4646;SDS011;2336;47.822;7.564;2024-02-26T06:22:10;4.50;;;4.30;;
4646;SDS011;2336;47.822;7.564;2024-02-26T06:24:37;4.60;;;4.30;;
4646;SDS011;2336;47.822;7.564;2024-02-26T06:27:04;5.90;;;4.10;;
4646;SDS011;2336;47.822;7.564;2024-02-26T06:29:31;7.00;;;4.90;;
4646;SDS011;2336;47.822;7.564;2024-02-26T06:31:57;5.13;;;4.87;;
4646;SDS011;2336;47.822;7.564;2024-02-26T06:34:24;22.70;;;11.73;;
4646;SDS011;2336;47.822;7.564;2024-02-26T06:36:51;14.60;;;8.80;;
4646;SDS011;2336;47.822;7.564;2024-02-26T06:39:19;7.60;;;6.80;;
4646;SDS011;2336;47.822;7.564;2024-02-26T06:41:46;6.67;;;6.27;;
4646;SDS011;2336;47.822;7.564;2024-02-26T06:44:13;6.30;;;6.00;;
4646;SDS011;2336;47.822;7.564;2024-02-26T06:46:40;8.03;;;7.43;;
4646;SDS011;2336;47.822;7.564;2024-02-26T06:49:06;7.77;;;7.27;;
4646;SDS011;2336;47.822;7.564;2024-02-26T06:51:33;6.63;;;6.20;;
4646;SDS011;2336;47.822;7.564;2024-02-26T06:54:00;5.60;;;5.30;;
4646;SDS011;2336;47.822;7.564;2024-02-26T06:56:28;6.40;;;6.00;;
4646;SDS011;2336;47.822;7.564;2024-02-26T06:58:55;5.70;;;5.30;;
4646;SDS011;2336;47.822;7.564;2024-02-26T07:01:21;5.60;;;5.20;;
4646;SDS011;2336;47.822;7.564;2024-02-26T07:03:48;5.13;;;4.83;;
4646;SDS011;2336;47.822;7.564;2024-02-26T07:06:15;6.00;;;5.50;;
4646;SDS011;2336;47.822;7.564;2024-02-26T07:08:42;9.20;;;8.30;;
4646;SDS011;2336;47.822;7.564;2024-02-26T07:11:08;7.63;;;7.13;;
4646;SDS011;2336;47.822;7.564;2024-02-26T07:13:37;5.43;;;5.00;;
4646;SDS011;2336;47.822;7.564;2024-02-26T07:16:04;6.30;;;5.90;;
4646;SDS011;2336;47.822;7.564;2024-02-26T07:18:32;7.33;;;6.63;;
4646;SDS011;2336;47.822;7.564;2024-02-26T07:21:01;6.50;;;6.07;;
4646;SDS011;2336;47.822;7.564;2024-02-26T07:23:28;7.30;;;6.80;;
4646;SDS011;2336;47.822;7.564;2024-02-26T07:25:55;13.10;;;10.83;;
4646;SDS011;2336;47.822;7.564;2024-02-26T07:28:22;16.60;;;10.40;;
4646;SDS011;2336;47.822;7.564;2024-02-26T07:30:51;16.63;;;9.30;;
4646;SDS011;2336;47.822;7.564;2024-02-26T07:33:18;47.17;;;14.60;;
4646;SDS011;2336;47.822;7.564;2024-02-26T07:35:44;6.70;;;6.30;;
4646;SDS011;2336;47.822;7.564;2024-02-26T07:38:11;6.83;;;6.23;;
4646;SDS011;2336;47.822;7.564;2024-02-26T07:40:39;10.20;;;9.20;;
4646;SDS011;2336;47.822;7.564;2024-02-26T07:43:05;22.33;;;10.73;;
4646;SDS011;2336;47.822;7.564;2024-02-26T07:45:32;7.37;;;6.87;;
4646;SDS011;2336;47.822;7.564;2024-02-26T07:48:03;11.47;;;9.23;;
4646;SDS011;2336;47.822;7.564;2024-02-26T07:50:29;6.30;;;5.90;;
4646;SDS011;2336;47.822;7.564;2024-02-26T07:52:56;6.40;;;5.90;;
4646;SDS011;2336;47.822;7.564;2024-02-26T07:55:23;14.73;;;8.50;;
4646;SDS011;2336;47.822;7.564;2024-02-26T07:57:50;9.90;;;7.23;;
4646;SDS011;2336;47.822;7.564;2024-02-26T08:00:17;8.60;;;6.63;;
4646;SDS011;2336;47.822;7.564;2024-02-26T08:02:44;7.53;;;6.63;;
4646;SDS011;2336;47.822;7.564;2024-02-26T08:05:13;4.93;;;4.63;;
4646;SDS011;2336;47.822;7.564;2024-02-26T08:07:40;5.90;;;5.40;;
4646;SDS011;2336;47.822;7.564;2024-02-26T08:10:07;4.73;;;4.50;;
4646;SDS011;2336;47.822;7.564;2024-02-26T08:12:34;10.43;;;8.43;;
4646;SDS011;2336;47.822;7.564;2024-02-26T08:15:01;5.97;;;5.47;;
4646;SDS011;2336;47.822;7.564;2024-02-26T08:17:28;4.53;;;4.33;;
4646;SDS011;2336;47.822;7.564;2024-02-26T08:19:55;5.07;;;4.80;;
4646;SDS011;2336;47.822;7.564;2024-02-26T08:22:23;3.90;;;3.70;;
4646;SDS011;2336;47.822;7.564;2024-02-26T08:24:50;4.17;;;3.97;;
4646;SDS011;2336;47.822;7.564;2024-02-26T08:27:16;4.47;;;4.23;;
4646;SDS011;2336;47.822;7.564;2024-02-26T08:29:43;3.77;;;3.37;;
4646;SDS011;2336;47.822;7.564;2024-02-26T08:32:09;3.53;;;3.43;;
4646;SDS011;2336;47.822;7.564;2024-02-26T08:34:36;7.30;;;5.43;;
4646;SDS011;2336;47.822;7.564;2024-02-26T08:37:03;3.73;;;3.53;;
4646;SDS011;2336;47.822;7.564;2024-02-26T08:39:33;4.13;;;3.93;;
4646;SDS011;2336;47.822;7.564;2024-02-26T08:42:00;4.37;;;4.17;;
4646;SDS011;2336;47.822;7.564;2024-02-26T08:44:26;4.23;;;4.13;;
4646;SDS011;2336;47.822;7.564;2024-02-26T08:46:53;5.10;;;4.83;;
4646;SDS011;2336;47.822;7.564;2024-02-26T08:49:20;4.13;;;3.90;;
4646;SDS011;2336;47.822;7.564;2024-02-26T08:51:48;4.43;;;4.13;;
4646;SDS011;2336;47.822;7.564;2024-02-26T08:54:15;6.53;;;5.93;;
4646;SDS011;2336;47.822;7.564;2024-02-26T08:56:43;5.33;;;4.93;;
4646;SDS011;2336;47.822;7.564;2024-02-26T08:59:10;4.30;;;3.90;;
4646;SDS011;2336;47.822;7.564;2024-02-26T09:01:36;3.23;;;3.00;;
4646;SDS011;2336;47.822;7.564;2024-02-26T09:04:03;3.67;;;3.57;;
4646;SDS011;2336;47.822;7.564;2024-02-26T09:06:30;3.23;;;3.03;;
4646;SDS011;2336;47.822;7.564;2024-02-26T09:08:57;3.33;;;3.23;;
4646;SDS011;2336;47.822;7.564;2024-02-26T09:11:23;4.10;;;3.90;;
4646;SDS011;2336;47.822;7.564;2024-02-26T09:13:51;13.17;;;11.87;;
4646;SDS011;2336;47.822;7.564;2024-02-26T09:16:18;9.90;;;9.00;;
4646;SDS011;2336;47.822;7.564;2024-02-26T09:18:45;2.87;;;2.67;;
4646;SDS011;2336;47.822;7.564;2024-02-26T09:21:12;2.50;;;2.50;;
4646;SDS011;2336;47.822;7.564;2024-02-26T09:23:39;2.23;;;2.23;;
4646;SDS011;2336;47.822;7.564;2024-02-26T09:26:06;2.00;;;2.00;;
4646;SDS011;2336;47.822;7.564;2024-02-26T09:28:33;2.70;;;2.50;;
4646;SDS011;2336;47.822;7.564;2024-02-26T09:31:09;2.10;;;2.10;;
4646;SDS011;2336;47.822;7.564;2024-02-26T09:33:36;2.50;;;2.40;;
4646;SDS011;2336;47.822;7.564;2024-02-26T09:36:03;2.03;;;2.03;;
4646;SDS011;2336;47.822;7.564;2024-02-26T09:38:31;2.57;;;2.47;;
4646;SDS011;2336;47.822;7.564;2024-02-26T09:41:02;2.67;;;2.60;;
4646;SDS011;2336;47.822;7.564;2024-02-26T09:43:31;2.03;;;2.00;;
4646;SDS011;2336;47.822;7.564;2024-02-26T09:46:01;3.47;;;3.37;;
4646;SDS011;2336;47.822;7.564;2024-02-26T09:48:30;2.67;;;2.57;;
4646;SDS011;2336;47.822;7.564;2024-02-26T09:50:59;3.13;;;3.03;;
4646;SDS011;2336;47.822;7.564;2024-02-26T09:53:27;3.93;;;3.63;;
4646;SDS011;2336;47.822;7.564;2024-02-26T09:55:56;2.60;;;2.50;;
4646;SDS011;2336;47.822;7.564;2024-02-26T09:58:23;2.60;;;2.60;;
4646;SDS011;2336;47.822;7.564;2024-02-26T10:00:53;2.03;;;1.93;;
4646;SDS011;2336;47.822;7.564;2024-02-26T10:03:23;3.17;;;2.97;;
4646;SDS011;2336;47.822;7.564;2024-02-26T10:05:55;2.47;;;2.47;;
4646;SDS011;2336;47.822;7.564;2024-02-26T10:08:23;2.67;;;2.57;;
4646;SDS011;2336;47.822;7.564;2024-02-26T10:10:50;2.10;;;2.10;;
4646;SDS011;2336;47.822;7.564;2024-02-26T10:13:18;2.17;;;2.17;;
4646;SDS011;2336;47.822;7.564;2024-02-26T10:15:45;1.97;;;1.97;;
4646;SDS011;2336;47.822;7.564;2024-02-26T10:18:12;1.97;;;1.90;;
4646;SDS011;2336;47.822;7.564;2024-02-26T10:21:00;3.10;;;2.87;;
4646;SDS011;2336;47.822;7.564;2024-02-26T10:23:27;1.53;;;1.53;;
4646;SDS011;2336;47.822;7.564;2024-02-26T10:25:54;5.30;;;3.20;;
4646;SDS011;2336;47.822;7.564;2024-02-26T10:28:22;3.33;;;2.67;;
4646;SDS011;2336;47.822;7.564;2024-02-26T10:30:50;3.60;;;3.37;;
4646;SDS011;2336;47.822;7.564;2024-02-26T10:33:18;1.67;;;1.53;;
4646;SDS011;2336;47.822;7.564;2024-02-26T10:35:45;1.80;;;1.80;;
4646;SDS011;2336;47.822;7.564;2024-02-26T10:38:14;1.77;;;1.77;;
4646;SDS011;2336;47.822;7.564;2024-02-26T10:40:45;2.20;;;2.10;;
4646;SDS011;2336;47.822;7.564;2024-02-26T10:43:12;1.50;;;1.50;;
4646;SDS011;2336;47.822;7.564;2024-02-26T10:45:40;1.63;;;1.63;;
4646;SDS011;2336;47.822;7.564;2024-02-26T10:48:09;1.70;;;1.60;;
4646;SDS011;2336;47.822;7.564;2024-02-26T10:50:37;1.67;;;1.67;;
4646;SDS011;2336;47.822;7.564;2024-02-26T10:53:05;1.80;;;1.80;;
4646;SDS011;2336;47.822;7.564;2024-02-26T10:55:41;1.83;;;1.83;;
4646;SDS011;2336;47.822;7.564;2024-02-26T10:58:09;6.47;;;5.97;;
4646;SDS011;2336;47.822;7.564;2024-02-26T11:00:38;2.20;;;2.20;;
4646;SDS011;2336;47.822;7.564;2024-02-26T11:03:06;3.83;;;2.90;;
4646;SDS011;2336;47.822;7.564;2024-02-26T11:05:36;1.73;;;1.73;;
4646;SDS011;2336;47.822;7.564;2024-02-26T11:08:06;1.27;;;1.27;;
4646;SDS011;2336;47.822;7.564;2024-02-26T11:10:33;1.63;;;1.63;;
4646;SDS011;2336;47.822;7.564;2024-02-26T11:13:01;2.20;;;2.10;;
4646;SDS011;2336;47.822;7.564;2024-02-26T11:15:32;1.20;;;1.20;;
4646;SDS011;2336;47.822;7.564;2024-02-26T11:17:59;1.27;;;1.27;;
4646;SDS011;2336;47.822;7.564;2024-02-26T11:20:28;1.43;;;1.43;;
4646;SDS011;2336;47.822;7.564;2024-02-26T11:22:55;1.77;;;1.20;;
4646;SDS011;2336;47.822;7.564;2024-02-26T11:25:22;1.53;;;1.53;;
4646;SDS011;2336;47.822;7.564;2024-02-26T11:27:50;1.53;;;1.53;;
4646;SDS011;2336;47.822;7.564;2024-02-26T11:30:21;1.20;;;1.20;;
4646;SDS011;2336;47.822;7.564;2024-02-26T11:32:49;1.30;;;1.30;;
4646;SDS011;2336;47.822;7.564;2024-02-26T11:35:17;1.40;;;1.30;;
4646;SDS011;2336;47.822;7.564;2024-02-26T11:37:55;3.00;;;1.30;;
4646;SDS011;2336;47.822;7.564;2024-02-26T11:40:23;1.20;;;1.20;;
4646;SDS011;2336;47.822;7.564;2024-02-26T11:42:51;1.00;;;1.00;;
4646;SDS011;2336;47.822;7.564;2024-02-26T11:48:25;1.20;;;1.10;;
4646;SDS011;2336;47.822;7.564;2024-02-26T11:50:55;2.30;;;1.47;;
4646;SDS011;2336;47.822;7.564;2024-02-26T11:53:24;1.10;;;1.10;;
4646;SDS011;2336;47.822;7.564;2024-02-26T11:58:58;1.27;;;1.27;;
4646;SDS011;2336;47.822;7.564;2024-02-26T12:01:35;1.30;;;1.30;;
4646;SDS011;2336;47.822;7.564;2024-02-26T12:04:07;1.37;;;1.23;;
4646;SDS011;2336;47.822;7.564;2024-02-26T12:06:44;1.40;;;1.40;;
4646;SDS011;2336;47.822;7.564;2024-02-26T12:09:35;1.27;;;1.27;;
4646;SDS011;2336;47.822;7.564;2024-02-26T12:12:03;1.10;;;1.10;;
4646;SDS011;2336;47.822;7.564;2024-02-26T12:14:33;1.37;;;1.37;;
4646;SDS011;2336;47.822;7.564;2024-02-26T12:17:00;1.40;;;1.30;;
4646;SDS011;2336;47.822;7.564;2024-02-26T12:19:33;1.10;;;1.10;;
4646;SDS011;2336;47.822;7.564;2024-02-26T12:22:00;1.00;;;1.00;;
4646;SDS011;2336;47.822;7.564;2024-02-26T12:24:28;1.37;;;1.33;;
4646;SDS011;2336;47.822;7.564;2024-02-26T12:26:55;1.10;;;1.10;;
4646;SDS011;2336;47.822;7.564;2024-02-26T12:29:23;1.20;;;1.20;;
4646;SDS011;2336;47.822;7.564;2024-02-26T12:31:49;1.37;;;1.27;;
4646;SDS011;2336;47.822;7.564;2024-02-26T12:34:16;1.00;;;1.00;;
4646;SDS011;2336;47.822;7.564;2024-02-26T12:36:44;1.10;;;1.10;;
4646;SDS011;2336;47.822;7.564;2024-02-26T12:39:11;1.20;;;1.20;;
4646;SDS011;2336;47.822;7.564;2024-02-26T12:41:38;1.27;;;1.17;;
4646;SDS011;2336;47.822;7.564;2024-02-26T12:44:05;1.00;;;1.00;;
4646;SDS011;2336;47.822;7.564;2024-02-26T12:46:33;2.10;;;2.00;;
4646;SDS011;2336;47.822;7.564;2024-02-26T12:49:00;1.73;;;1.63;;
4646;SDS011;2336;47.822;7.564;2024-02-26T12:51:27;1.20;;;1.20;;
4646;SDS011;2336;47.822;7.564;2024-02-26T12:53:55;13.93;;;9.60;;
4646;SDS011;2336;47.822;7.564;2024-02-26T12:56:22;5.90;;;4.40;;
4646;SDS011;2336;47.822;7.564;2024-02-26T12:58:50;2.93;;;2.73;;
4646;SDS011;2336;47.822;7.564;2024-02-26T13:01:21;2.00;;;1.90;;
4646;SDS011;2336;47.822;7.564;2024-02-26T13:03:50;3.80;;;3.60;;
4646;SDS011;2336;47.822;7.564;2024-02-26T13:06:18;2.43;;;2.23;;
4646;SDS011;2336;47.822;7.564;2024-02-26T13:08:48;3.53;;;2.33;;
4646;SDS011;2336;47.822;7.564;2024-02-26T13:11:17;1.20;;;1.20;;
4646;SDS011;2336;47.822;7.564;2024-02-26T13:13:47;2.40;;;1.20;;
4646;SDS011;2336;47.822;7.564;2024-02-26T13:16:16;1.63;;;1.57;;
4646;SDS011;2336;47.822;7.564;2024-02-26T13:18:43;1.60;;;1.60;;
4646;SDS011;2336;47.822;7.564;2024-02-26T13:21:11;1.20;;;1.20;;
4646;SDS011;2336;47.822;7.564;2024-02-26T13:23:40;1.50;;;1.50;;
4646;SDS011;2336;47.822;7.564;2024-02-26T13:26:07;1.37;;;1.37;;
4646;SDS011;2336;47.822;7.564;2024-02-26T13:28:35;1.30;;;1.30;;
4646;SDS011;2336;47.822;7.564;2024-02-26T13:31:02;1.53;;;1.53;;
4646;SDS011;2336;47.822;7.564;2024-02-26T13:33:31;1.37;;;1.37;;
4646;SDS011;2336;47.822;7.564;2024-02-26T13:35:58;1.80;;;1.70;;
4646;SDS011;2336;47.822;7.564;2024-02-26T13:38:26;1.30;;;1.30;;
4646;SDS011;2336;47.822;7.564;2024-02-26T13:40:54;1.97;;;1.67;;
4646;SDS011;2336;47.822;7.564;2024-02-26T13:43:21;1.70;;;1.60;;
4646;SDS011;2336;47.822;7.564;2024-02-26T13:45:49;1.67;;;1.57;;
4646;SDS011;2336;47.822;7.564;2024-02-26T13:48:16;1.60;;;1.50;;
4646;SDS011;2336;47.822;7.564;2024-02-26T13:50:43;1.80;;;1.70;;
4646;SDS011;2336;47.822;7.564;2024-02-26T13:53:11;3.27;;;1.43;;
4646;SDS011;2336;47.822;7.564;2024-02-26T13:55:39;1.33;;;1.17;;
4646;SDS011;2336;47.822;7.564;2024-02-26T13:58:07;1.23;;;1.23;;
4646;SDS011;2336;47.822;7.564;2024-02-26T14:00:34;1.10;;;1.10;;
4646;SDS011;2336;47.822;7.564;2024-02-26T14:03:02;3.07;;;2.90;;
4646;SDS011;2336;47.822;7.564;2024-02-26T14:05:29;1.10;;;1.10;;
4646;SDS011;2336;47.822;7.564;2024-02-26T14:07:56;1.27;;;1.27;;
4646;SDS011;2336;47.822;7.564;2024-02-26T14:10:23;1.13;;;1.07;;
4646;SDS011;2336;47.822;7.564;2024-02-26T14:12:50;1.30;;;1.20;;
4646;SDS011;2336;47.822;7.564;2024-02-26T14:15:16;1.20;;;1.10;;
4646;SDS011;2336;47.822;7.564;2024-02-26T14:17:43;3.47;;;1.40;;
4646;SDS011;2336;47.822;7.564;2024-02-26T14:20:12;2.03;;;1.93;;
4646;SDS011;2336;47.822;7.564;2024-02-26T14:22:39;1.20;;;1.20;;
4646;SDS011;2336;47.822;7.564;2024-02-26T14:25:06;1.20;;;1.20;;
4646;SDS011;2336;47.822;7.564;2024-02-26T14:27:34;2.40;;;1.80;;
4646;SDS011;2336;47.822;7.564;2024-02-26T14:30:01;1.20;;;1.20;;
4646;SDS011;2336;47.822;7.564;2024-02-26T14:32:28;3.60;;;1.57;;
4646;SDS011;2336;47.822;7.564;2024-02-26T14:34:56;1.47;;;1.37;;
4646;SDS011;2336;47.822;7.564;2024-02-26T14:37:24;1.40;;;1.40;;
4646;SDS011;2336;47.822;7.564;2024-02-26T14:39:50;1.20;;;1.20;;
4646;SDS011;2336;47.822;7.564;2024-02-26T14:42:17;1.50;;;1.40;;
4646;SDS011;2336;47.822;7.564;2024-02-26T14:44:44;1.43;;;1.43;;
4646;SDS011;2336;47.822;7.564;2024-02-26T14:47:12;1.33;;;1.33;;
4646;SDS011;2336;47.822;7.564;2024-02-26T14:49:39;1.30;;;1.30;;
4646;SDS011;2336;47.822;7.564;2024-02-26T14:52:06;1.23;;;1.23;;
4646;SDS011;2336;47.822;7.564;2024-02-26T14:54:34;1.10;;;1.10;;
4646;SDS011;2336;47.822;7.564;2024-02-26T14:57:03;2.20;;;1.07;;
4646;SDS011;2336;47.822;7.564;2024-02-26T14:59:30;1.70;;;1.60;;
4646;SDS011;2336;47.822;7.564;2024-02-26T15:01:57;1.60;;;1.50;;
4646;SDS011;2336;47.822;7.564;2024-02-26T15:04:25;1.50;;;1.27;;
4646;SDS011;2336;47.822;7.564;2024-02-26T15:06:52;1.23;;;1.23;;
4646;SDS011;2336;47.822;7.564;2024-02-26T15:09:18;1.33;;;1.33;;
4646;SDS011;2336;47.822;7.564;2024-02-26T15:11:47;1.43;;;1.40;;
4646;SDS011;2336;47.822;7.564;2024-02-26T15:14:14;0.90;;;0.90;;
4646;SDS011;2336;47.822;7.564;2024-02-26T15:16:40;1.50;;;1.00;;
4646;SDS011;2336;47.822;7.564;2024-02-26T15:19:07;1.00;;;1.00;;
4646;SDS011;2336;47.822;7.564;2024-02-26T15:21:34;1.10;;;1.10;;
4646;SDS011;2336;47.822;7.564;2024-02-26T15:24:07;1.30;;;1.30;;